Terminal Aerodrome Forecast
Issued by NWS

Current Version | Previous Version | Graphics & Text | Print | Product List | Glossary On
Versions: 1 2 3 4 5 6 7 8 9 10 11 12 13 14 15 16
000
FTUS41 KPBZ 240520
TAFMGW
TAF
KMGW 240520Z 2406/2506 VRB03KT P6SM SKC
     FM241100 20008KT P6SM BKN200
     FM242000 21006KT P6SM OVC090=

USA.gov is the U.S. government's official web portal to all federal, state and local government web resources and services.